Time,TemperatureF,DewpointF,PressureIn,WindDirection,WindDirectionDegrees,WindSpeedMPH,WindSpeedGustMPH,Humidity,HourlyPrecipIn,Conditions,Clouds,dailyrainin,SolarRadiationWatts/m^2,SoftwareType,DateUTC
2013-06-01 00:00:00,52.8,22.2,29.74,East,80,4.0,-999.0,15,-99.99,,,0.00,0.0,cwc,2013-06-01 06:00:00,
2013-06-01 00:05:00,52.3,22.4,29.75,East,80,0.0,-999.0,17,-99.99,,,0.00,0.0,cwc,2013-06-01 06:05:00,
2013-06-01 00:10:00,51.6,21.4,29.75,East,80,0.0,-999.0,16,-99.99,,,0.00,0.0,cwc,2013-06-01 06:10:00,
2013-06-01 00:15:00,51.3,21.8,29.75,East,80,0.0,-999.0,18,-99.99,,,0.00,0.0,cwc,2013-06-01 06:15:00,
2013-06-01 00:20:00,50.4,21.2,29.73,East,80,0.0,-999.0,19,-99.99,,,0.00,0.0,cwc,2013-06-01 06:20:00,
2013-06-01 00:25:00,50.2,20.7,29.73,East,80,0.0,-999.0,18,-99.99,,,0.00,0.0,cwc,2013-06-01 06:25:00,
2013-06-01 00:30:00,50.2,19.6,29.73,East,80,2.0,-999.0,15,-99.99,,,0.00,0.0,cwc,2013-06-01 06:30:00,
2013-06-01 00:35:00,50.4,20.2,29.75,East,82,4.0,-999.0,16,-99.99,,,0.00,0.0,cwc,2013-06-01 06:35:00,
2013-06-01 00:40:00,50.4,20.2,29.75,East,82,0.0,-999.0,16,-99.99,,,0.00,0.0,cwc,2013-06-01 06:40:00,
2013-06-01 00:45:00,49.9,20.4,29.75,East,82,0.0,-999.0,18,-99.99,,,0.00,0.0,cwc,2013-06-01 06:45:00,
2013-06-01 00:50:00,49.6,19.4,29.75,East,82,0.0,-999.0,16,-99.99,,,0.00,0.0,cwc,2013-06-01 06:50:00,
2013-06-01 00:55:00,48.9,19.0,29.75,East,82,0.0,-999.0,17,-99.99,,,0.00,0.0,cwc,2013-06-01 06:55:00,
2013-06-01 01:00:00,48.5,18.3,29.75,East,82,0.0,-999.0,16,-99.99,,,0.00,0.0,cwc,2013-06-01 07:00:00,
2013-06-01 01:05:00,48.3,18.1,29.75,East,82,0.0,-999.0,16,-99.99,,,0.00,0.0,cwc,2013-06-01 07:05:00,
2013-06-01 01:10:00,48.0,17.8,29.75,East,82,0.0,-999.0,16,-99.99,,,0.00,0.0,cwc,2013-06-01 07:10:00,
2013-06-01 01:15:00,47.9,17.7,29.75,East,82,0.0,-999.0,16,-99.99,,,0.00,0.0,cwc,2013-06-01 07:15:00,
2013-06-01 01:20:00,47.4,17.9,29.77,East,82,0.0,-999.0,18,-99.99,,,0.00,0.0,cwc,2013-06-01 07:20:00,
2013-06-01 01:25:00,47.3,17.4,29.77,East,82,0.0,-999.0,17,-99.99,,,0.00,0.0,cwc,2013-06-01 07:25:00,
2013-06-01 01:30:00,47.0,17.1,29.77,East,82,2.0,-999.0,17,-99.99,,,0.00,0.0,cwc,2013-06-01 07:30:00,
2013-06-01 01:35:00,46.5,17.0,29.77,East,82,0.0,-999.0,18,-99.99,,,0.00,0.0,cwc,2013-06-01 07:35:00,
2013-06-01 01:40:00,46.4,16.9,29.77,East,82,0.0,-999.0,18,-99.99,,,0.00,0.0,cwc,2013-06-01 07:40:00,
2013-06-01 01:45:00,46.2,16.7,29.77,East,82,0.0,-999.0,18,-99.99,,,0.00,0.0,cwc,2013-06-01 07:45:00,
2013-06-01 01:50:00,45.8,16.6,29.78,East,82,0.0,-999.0,19,-99.99,,,0.00,0.0,cwc,2013-06-01 07:50:00,
2013-06-01 01:55:00,45.5,16.3,29.78,East,82,2.0,-999.0,19,-99.99,,,0.00,0.0,cwc,2013-06-01 07:55:00,
2013-06-01 02:00:00,45.4,15.9,29.78,East,82,0.0,-999.0,18,-99.99,,,0.00,0.0,cwc,2013-06-01 08:00:00,
2013-06-01 02:05:00,45.1,16.3,29.78,East,82,0.0,-999.0,20,-99.99,,,0.00,0.0,cwc,2013-06-01 08:05:00,
2013-06-01 02:10:00,44.9,15.7,29.78,East,82,0.0,-999.0,19,-99.99,,,0.00,0.0,cwc,2013-06-01 08:10:00,
2013-06-01 02:15:00,45.7,23.4,29.78,East,82,0.0,-999.0,38,-99.99,,,0.00,0.0,cwc,2013-06-01 08:15:00,
2013-06-01 02:20:00,44.5,15.0,29.78,East,88,0.0,-999.0,18,-99.99,,,0.00,0.0,cwc,2013-06-01 08:20:00,
2013-06-01 02:30:00,43.8,17.2,29.78,East,88,0.0,-999.0,26,-99.99,,,0.00,0.0,cwc,2013-06-01 08:30:00,
2013-06-01 02:35:00,44.8,21.8,29.80,East,88,0.0,-999.0,36,-99.99,,,0.00,0.0,cwc,2013-06-01 08:35:00,
2013-06-01 02:40:00,43.5,16.9,29.80,East,88,0.0,-999.0,26,-99.99,,,0.00,0.0,cwc,2013-06-01 08:40:00,
2013-06-01 02:45:00,43.2,14.8,29.80,East,88,1.0,-999.0,21,-99.99,,,0.00,0.0,cwc,2013-06-01 08:45:00,
2013-06-01 02:50:00,43.8,16.8,29.80,East,88,0.0,-999.0,25,-99.99,,,0.00,0.0,cwc,2013-06-01 08:50:00,
2013-06-01 02:55:00,43.8,17.2,29.80,East,88,0.0,-999.0,26,-99.99,,,0.00,0.0,cwc,2013-06-01 08:55:00,
2013-06-01 03:00:00,43.6,25.6,29.80,East,88,0.0,-999.0,50,-99.99,,,0.00,0.0,cwc,2013-06-01 09:00:00,
2013-06-01 03:05:00,44.1,20.7,29.80,East,88,0.0,-999.0,35,-99.99,,,0.00,0.0,cwc,2013-06-01 09:05:00,
2013-06-01 03:10:00,43.1,15.0,29.80,East,88,0.0,-999.0,22,-99.99,,,0.00,0.0,cwc,2013-06-01 09:10:00,
2013-06-01 03:15:00,43.1,17.2,29.80,East,88,0.0,-999.0,28,-99.99,,,0.00,0.0,cwc,2013-06-01 09:15:00,
2013-06-01 03:25:00,44.1,16.7,29.81,East,88,0.0,-999.0,24,-99.99,,,0.00,0.0,cwc,2013-06-01 09:25:00,
2013-06-01 03:30:00,42.6,14.5,29.81,East,88,0.0,-999.0,22,-99.99,,,0.00,0.0,cwc,2013-06-01 09:30:00,
2013-06-01 03:35:00,42.5,15.9,29.81,East,88,0.0,-999.0,26,-99.99,,,0.00,0.0,cwc,2013-06-01 09:35:00,
2013-06-01 03:40:00,43.6,17.0,29.81,East,88,0.0,-999.0,26,-99.99,,,0.00,0.0,cwc,2013-06-01 09:40:00,
2013-06-01 03:45:00,43.5,28.4,29.81,East,88,0.0,-999.0,58,-99.99,,,0.00,0.0,cwc,2013-06-01 09:45:00,
2013-06-01 03:50:00,42.6,14.9,29.80,East,88,0.0,-999.0,23,-99.99,,,0.00,0.0,cwc,2013-06-01 09:50:00,
2013-06-01 03:55:00,43.6,15.5,29.80,East,88,0.0,-999.0,22,-99.99,,,0.00,0.0,cwc,2013-06-01 09:55:00,
2013-06-01 04:00:00,42.2,14.1,29.80,East,88,0.0,-999.0,22,-99.99,,,0.00,0.0,cwc,2013-06-01 10:00:00,
2013-06-01 04:05:00,41.6,13.5,29.82,East,88,0.0,-999.0,22,-99.99,,,0.00,0.0,cwc,2013-06-01 10:05:00,
2013-06-01 04:10:00,42.3,17.1,29.82,East,88,1.0,-999.0,30,-99.99,,,0.00,0.0,cwc,2013-06-01 10:10:00,
2013-06-01 04:15:00,41.1,23.8,29.82,East,88,0.0,-999.0,52,-99.99,,,0.00,0.0,cwc,2013-06-01 10:15:00,
2013-06-01 04:20:00,41.5,18.8,29.84,East,88,0.0,-999.0,37,-99.99,,,0.00,0.0,cwc,2013-06-01 10:20:00,
2013-06-01 04:25:00,40.9,15.3,29.84,East,88,0.0,-999.0,29,-99.99,,,0.00,0.0,cwc,2013-06-01 10:25:00,
2013-06-01 04:30:00,41.6,29.4,29.84,East,88,0.0,-999.0,66,-99.99,,,0.00,0.0,cwc,2013-06-01 10:30:00,
2013-06-01 04:35:00,40.8,22.1,29.83,East,88,0.0,-999.0,48,-99.99,,,0.00,0.0,cwc,2013-06-01 10:35:00,
2013-06-01 04:40:00,40.5,17.5,29.83,East,88,0.0,-999.0,36,-99.99,,,0.00,0.0,cwc,2013-06-01 10:40:00,
2013-06-01 04:45:00,39.8,12.8,29.83,East,88,0.0,-999.0,25,-99.99,,,0.00,0.0,cwc,2013-06-01 10:45:00,
2013-06-01 04:50:00,40.1,17.1,29.86,East,88,0.0,-999.0,36,-99.99,,,0.00,0.0,cwc,2013-06-01 10:50:00,
2013-06-01 04:55:00,42.1,18.7,29.86,East,88,0.0,-999.0,35,-99.99,,,0.00,0.0,cwc,2013-06-01 10:55:00,
2013-06-01 05:00:00,39.8,16.4,29.86,East,88,0.0,-999.0,35,-99.99,,,0.00,0.0,cwc,2013-06-01 11:00:00,
2013-06-01 05:05:00,39.6,14.4,29.86,East,88,0.0,-999.0,30,-99.99,,,0.00,0.0,cwc,2013-06-01 11:05:00,
2013-06-01 05:10:00,38.8,20.8,29.86,East,88,0.0,-999.0,50,-99.99,,,0.00,0.0,cwc,2013-06-01 11:10:00,
2013-06-01 05:15:00,37.9,14.9,29.86,East,88,0.0,-999.0,36,-99.99,,,0.00,0.0,cwc,2013-06-01 11:15:00,
2013-06-01 05:20:00,39.1,15.0,29.89,East,88,0.0,-999.0,33,-99.99,,,0.00,0.0,cwc,2013-06-01 11:20:00,
2013-06-01 05:25:00,37.9,18.8,29.89,East,88,0.0,-999.0,47,-99.99,,,0.00,0.0,cwc,2013-06-01 11:25:00,
2013-06-01 05:30:00,37.3,16.8,29.89,East,88,0.0,-999.0,43,-99.99,,,0.00,0.0,cwc,2013-06-01 11:30:00,
2013-06-01 05:35:00,37.0,12.5,29.90,East,88,0.0,-999.0,32,-99.99,,,0.00,0.0,cwc,2013-06-01 11:35:00,
2013-06-01 05:40:00,36.3,14.0,29.90,East,88,0.0,-999.0,38,-99.99,,,0.00,0.0,cwc,2013-06-01 11:40:00,
2013-06-01 05:45:00,36.0,14.8,29.90,East,88,0.0,-999.0,41,-99.99,,,0.00,0.0,cwc,2013-06-01 11:45:00,
2013-06-01 05:50:00,35.5,13.2,29.92,East,88,0.0,-999.0,38,-99.99,,,0.00,0.0,cwc,2013-06-01 11:50:00,
2013-06-01 05:55:00,36.0,14.8,29.92,East,88,0.0,-999.0,41,-99.99,,,0.00,0.0,cwc,2013-06-01 11:55:00,
2013-06-01 06:00:00,35.3,15.9,29.92,East,88,0.0,-999.0,46,-99.99,,,0.00,0.0,cwc,2013-06-01 12:00:00,
2013-06-01 06:05:00,35.0,13.8,29.92,East,88,0.0,-999.0,41,-99.99,,,0.00,0.0,cwc,2013-06-01 12:05:00,
2013-06-01 06:10:00,34.9,13.7,29.92,East,88,0.0,-999.0,41,-99.99,,,0.00,0.0,cwc,2013-06-01 12:10:00,
2013-06-01 06:15:00,35.5,18.2,29.92,East,88,0.0,-999.0,52,-99.99,,,0.00,0.0,cwc,2013-06-01 12:15:00,
2013-06-01 06:20:00,35.8,15.6,29.94,East,88,0.0,-999.0,44,-99.99,,,0.00,0.0,cwc,2013-06-01 12:20:00,
2013-06-01 06:25:00,35.6,14.4,29.94,East,88,0.0,-999.0,41,-99.99,,,0.00,0.0,cwc,2013-06-01 12:25:00,
2013-06-01 06:30:00,36.2,14.2,29.94,East,88,0.0,-999.0,39,-99.99,,,0.00,0.0,cwc,2013-06-01 12:30:00,
2013-06-01 06:35:00,38.3,16.0,29.94,East,88,0.0,-999.0,38,-99.99,,,0.00,0.0,cwc,2013-06-01 12:35:00,
2013-06-01 06:40:00,37.3,13.5,29.94,East,88,0.0,-999.0,34,-99.99,,,0.00,0.0,cwc,2013-06-01 12:40:00,
2013-06-01 06:45:00,38.9,19.5,29.94,East,88,0.0,-999.0,46,-99.99,,,0.00,0.0,cwc,2013-06-01 12:45:00,
2013-06-01 06:50:00,39.5,17.9,29.93,East,88,0.0,-999.0,40,-99.99,,,0.00,0.0,cwc,2013-06-01 12:50:00,
2013-06-01 06:55:00,40.9,18.6,29.93,East,88,0.0,-999.0,38,-99.99,,,0.00,0.0,cwc,2013-06-01 12:55:00,
2013-06-01 07:00:00,42.2,25.3,29.93,East,88,0.0,-999.0,53,-99.99,,,0.00,0.0,cwc,2013-06-01 13:00:00,
2013-06-01 07:05:00,43.8,17.9,29.91,East,89,0.0,-999.0,28,-99.99,,,0.00,0.0,cwc,2013-06-01 13:05:00,
2013-06-01 07:10:00,43.9,17.6,29.91,East,89,0.0,-999.0,27,-99.99,,,0.00,0.0,cwc,2013-06-01 13:10:00,
2013-06-01 07:15:00,46.8,21.6,29.91,East,89,0.0,-999.0,30,-99.99,,,0.00,0.0,cwc,2013-06-01 13:15:00,
2013-06-01 07:20:00,48.2,20.1,29.92,East,89,0.0,-999.0,22,-99.99,,,0.00,0.0,cwc,2013-06-01 13:20:00,
2013-06-01 07:25:00,48.5,20.4,29.92,East,86,4.0,-999.0,22,-99.99,,,0.00,0.0,cwc,2013-06-01 13:25:00,
2013-06-01 07:30:00,49.1,20.3,29.92,NE,44,4.0,-999.0,20,-99.99,,,0.00,0.0,cwc,2013-06-01 13:30:00,
2013-06-01 07:35:00,50.1,20.9,29.90,NNE,31,0.0,-999.0,19,-99.99,,,0.00,0.0,cwc,2013-06-01 13:35:00,
2013-06-01 07:40:00,51.3,22.5,29.90,NNE,31,0.0,-999.0,20,-99.99,,,0.00,0.0,cwc,2013-06-01 13:40:00,
2013-06-01 07:45:00,51.9,22.4,29.90,NNE,24,2.0,-999.0,18,-99.99,,,0.00,0.0,cwc,2013-06-01 13:45:00,
2013-06-01 07:50:00,52.0,22.5,29.88,NNE,23,6.0,-999.0,18,-99.99,,,0.00,0.0,cwc,2013-06-01 13:50:00,
2013-06-01 07:55:00,52.3,23.1,29.88,North,3,4.0,-999.0,19,-99.99,,,0.00,0.0,cwc,2013-06-01 13:55:00,
2013-06-01 08:00:00,52.6,23.1,29.88,North,356,11.0,-999.0,18,-99.99,,,0.00,0.0,cwc,2013-06-01 14:00:00,
2013-06-01 08:05:00,53.6,23.4,29.87,North,11,4.0,-999.0,16,-99.99,,,0.00,0.0,cwc,2013-06-01 14:05:00,
2013-06-01 08:10:00,53.9,23.3,29.87,North,1,8.0,-999.0,15,-99.99,,,0.00,0.0,cwc,2013-06-01 14:10:00,
2013-06-01 08:15:00,54.5,24.3,29.87,North,3,0.0,-999.0,16,-99.99,,,0.00,0.0,cwc,2013-06-01 14:15:00,
2013-06-01 08:20:00,55.6,25.4,29.88,NNE,23,2.0,-999.0,16,-99.99,,,0.00,0.0,cwc,2013-06-01 14:20:00,
2013-06-01 08:25:00,56.5,25.9,29.88,North,0,8.0,-999.0,15,-99.99,,,0.00,0.0,cwc,2013-06-01 14:25:00,
2013-06-01 08:30:00,56.6,26.0,29.88,ENE,68,0.0,-999.0,15,-99.99,,,0.00,0.0,cwc,2013-06-01 14:30:00,
2013-06-01 08:35:00,57.8,27.2,29.87,NE,56,8.0,-999.0,15,-99.99,,,0.00,0.0,cwc,2013-06-01 14:35:00,
2013-06-01 08:40:00,58.1,27.5,29.87,NE,42,2.0,-999.0,15,-99.99,,,0.00,0.0,cwc,2013-06-01 14:40:00,
2013-06-01 08:45:00,59.2,28.6,29.87,NNE,28,6.0,-999.0,15,-99.99,,,0.00,0.0,cwc,2013-06-01 14:45:00,
2013-06-01 08:50:00,59.5,28.9,29.86,NE,38,2.0,-999.0,15,-99.99,,,0.00,0.0,cwc,2013-06-01 14:50:00,
2013-06-01 08:55:00,60.1,29.1,29.86,NE,52,2.0,-999.0,14,-99.99,,,0.00,0.0,cwc,2013-06-01 14:55:00,
2013-06-01 09:00:00,61.0,30.0,29.86,NNE,20,0.0,-999.0,14,-99.99,,,0.00,0.0,cwc,2013-06-01 15:00:00,
2013-06-01 09:05:00,61.3,30.3,29.84,NE,41,9.0,-999.0,14,-99.99,,,0.00,0.0,cwc,2013-06-01 15:05:00,
2013-06-01 09:10:00,61.5,30.2,29.84,NNE,17,4.0,-999.0,13,-99.99,,,0.00,0.0,cwc,2013-06-01 15:10:00,
2013-06-01 09:15:00,61.8,30.5,29.84,NNE,32,15.0,-999.0,13,-99.99,,,0.00,0.0,cwc,2013-06-01 15:15:00,
2013-06-01 09:20:00,62.6,30.9,29.84,NNE,14,9.0,-999.0,12,-99.99,,,0.00,0.0,cwc,2013-06-01 15:20:00,
2013-06-01 09:25:00,63.1,31.8,29.84,NE,38,1.0,-999.0,13,-99.99,,,0.00,0.0,cwc,2013-06-01 15:25:00,
2013-06-01 09:30:00,63.9,32.2,29.84,NE,52,13.0,-999.0,12,-99.99,,,0.00,0.0,cwc,2013-06-01 15:30:00,
2013-06-01 09:35:00,63.9,32.2,29.82,NE,34,8.0,-999.0,12,-99.99,,,0.00,0.0,cwc,2013-06-01 15:35:00,
2013-06-01 09:40:00,65.0,33.0,29.82,North,6,0.0,-999.0,11,-99.99,,,0.00,0.0,cwc,2013-06-01 15:40:00,
2013-06-01 09:45:00,65.8,33.4,29.82,East,79,4.0,-999.0,10,-99.99,,,0.00,0.0,cwc,2013-06-01 15:45:00,
2013-06-01 09:50:00,66.3,34.3,29.80,East,90,8.0,-999.0,11,-99.99,,,0.00,0.0,cwc,2013-06-01 15:50:00,
2013-06-01 09:55:00,66.3,33.9,29.80,NE,35,6.0,-999.0,10,-99.99,,,0.00,0.0,cwc,2013-06-01 15:55:00,
2013-06-01 10:00:00,67.4,35.0,29.80,ENE,61,7.0,-999.0,10,-99.99,,,0.00,0.0,cwc,2013-06-01 16:00:00,
2013-06-01 10:05:00,68.3,35.5,29.80,NE,51,2.0,-999.0,9,-99.99,,,0.00,0.0,cwc,2013-06-01 16:05:00,
2013-06-01 10:10:00,67.8,35.0,29.80,NE,47,4.0,-999.0,9,-99.99,,,0.00,0.0,cwc,2013-06-01 16:10:00,
2013-06-01 10:15:00,67.9,35.1,29.80,ENE,78,6.0,-999.0,9,-99.99,,,0.00,0.0,cwc,2013-06-01 16:15:00,
2013-06-01 10:20:00,68.9,36.1,29.83,ENE,64,6.0,-999.0,9,-99.99,,,0.00,0.0,cwc,2013-06-01 16:20:00,
2013-06-01 10:25:00,68.4,35.6,29.83,ENE,72,7.0,-999.0,9,-99.99,,,0.00,0.0,cwc,2013-06-01 16:25:00,
2013-06-01 10:30:00,68.9,36.1,29.83,NE,54,11.0,-999.0,9,-99.99,,,0.00,0.0,cwc,2013-06-01 16:30:00,
2013-06-01 10:35:00,68.8,35.7,29.82,East,86,9.0,-999.0,8,-99.99,,,0.00,0.0,cwc,2013-06-01 16:35:00,
2013-06-01 10:40:00,69.8,37.0,29.82,ENE,61,0.0,-999.0,9,-99.99,,,0.00,0.0,cwc,2013-06-01 16:40:00,
2013-06-01 10:45:00,69.4,36.6,29.82,NNE,30,7.0,-999.0,9,-99.99,,,0.00,0.0,cwc,2013-06-01 16:45:00,
2013-06-01 10:50:00,69.6,36.8,29.82,NNE,28,7.0,-999.0,9,-99.99,,,0.00,0.0,cwc,2013-06-01 16:50:00,
2013-06-01 10:55:00,70.1,37.3,29.82,North,8,0.0,-999.0,9,-99.99,,,0.00,0.0,cwc,2013-06-01 16:55:00,
2013-06-01 11:00:00,70.4,37.3,29.82,NE,49,7.0,-999.0,8,-99.99,,,0.00,0.0,cwc,2013-06-01 17:00:00,
2013-06-01 11:05:00,70.8,37.7,29.81,ESE,104,4.0,-999.0,8,-99.99,,,0.00,0.0,cwc,2013-06-01 17:05:00,
2013-06-01 11:10:00,73.3,40.2,29.81,ESE,104,0.0,-999.0,8,-99.99,,,0.00,0.0,cwc,2013-06-01 17:10:00,
2013-06-01 11:15:00,72.5,39.0,29.81,South,184,4.0,-999.0,7,-99.99,,,0.00,0.0,cwc,2013-06-01 17:15:00,
2013-06-01 11:20:00,71.5,38.0,29.83,SE,145,6.0,-999.0,7,-99.99,,,0.00,0.0,cwc,2013-06-01 17:20:00,
2013-06-01 11:25:00,71.8,38.7,29.83,SSE,162,8.0,-999.0,8,-99.99,,,0.00,0.0,cwc,2013-06-01 17:25:00,
2013-06-01 11:30:00,71.3,37.8,29.83,ENE,69,2.0,-999.0,7,-99.99,,,0.00,0.0,cwc,2013-06-01 17:30:00,
2013-06-01 11:35:00,71.6,38.1,29.84,East,82,0.0,-999.0,7,-99.99,,,0.00,0.0,cwc,2013-06-01 17:35:00,
2013-06-01 11:40:00,74.9,41.4,29.84,East,79,1.0,-999.0,7,-99.99,,,0.00,0.0,cwc,2013-06-01 17:40:00,
2013-06-01 11:45:00,73.7,40.2,29.84,NNE,18,1.0,-999.0,7,-99.99,,,0.00,0.0,cwc,2013-06-01 17:45:00,
2013-06-01 11:50:00,74.7,40.9,29.82,NNE,18,0.0,-999.0,6,-99.99,,,0.00,0.0,cwc,2013-06-01 17:50:00,
2013-06-01 11:55:00,76.0,42.2,29.82,North,359,0.0,-999.0,6,-99.99,,,0.00,0.0,cwc,2013-06-01 17:55:00,
2013-06-01 12:00:00,76.7,42.9,29.82,North,357,7.0,-999.0,6,-99.99,,,0.00,0.0,cwc,2013-06-01 18:00:00,
2013-06-01 12:05:00,75.3,41.5,29.79,SSE,167,9.0,-999.0,6,-99.99,,,0.00,0.0,cwc,2013-06-01 18:05:00,
2013-06-01 12:10:00,74.4,40.9,29.79,SW,223,7.0,-999.0,7,-99.99,,,0.00,0.0,cwc,2013-06-01 18:10:00,
2013-06-01 12:15:00,74.4,40.6,29.79,SSW,199,0.0,-999.0,6,-99.99,,,0.00,0.0,cwc,2013-06-01 18:15:00,
2013-06-01 12:20:00,73.7,40.2,29.84,ESE,102,6.0,-999.0,7,-99.99,,,0.00,0.0,cwc,2013-06-01 18:20:00,
2013-06-01 12:25:00,73.3,39.5,29.84,SSE,158,8.0,-999.0,6,-99.99,,,0.00,0.0,cwc,2013-06-01 18:25:00,
2013-06-01 12:30:00,75.6,42.1,29.84,South,174,1.0,-999.0,7,-99.99,,,0.00,0.0,cwc,2013-06-01 18:30:00,
2013-06-01 12:35:00,77.9,44.1,29.82,West,265,0.0,-999.0,6,-99.99,,,0.00,0.0,cwc,2013-06-01 18:35:00,
2013-06-01 12:40:00,77.7,44.2,29.82,WSW,247,7.0,-999.0,7,-99.99,,,0.00,0.0,cwc,2013-06-01 18:40:00,
2013-06-01 12:45:00,77.9,44.1,29.82,North,350,6.0,-999.0,6,-99.99,,,0.00,0.0,cwc,2013-06-01 18:45:00,
2013-06-01 12:50:00,76.8,42.6,29.80,WNW,294,6.0,-999.0,5,-99.99,,,0.00,0.0,cwc,2013-06-01 18:50:00,
2013-06-01 12:55:00,77.2,43.4,29.80,NNE,17,7.0,-999.0,6,-99.99,,,0.00,0.0,cwc,2013-06-01 18:55:00,
2013-06-01 13:00:00,77.6,43.8,29.80,WNW,298,4.0,-999.0,6,-99.99,,,0.00,0.0,cwc,2013-06-01 19:00:00,
2013-06-01 13:05:00,78.3,44.5,29.81,NW,309,4.0,-999.0,6,-99.99,,,0.00,0.0,cwc,2013-06-01 19:05:00,
2013-06-01 13:10:00,78.6,44.4,29.81,SW,230,8.0,-999.0,5,-99.99,,,0.00,0.0,cwc,2013-06-01 19:10:00,
2013-06-01 13:15:00,79.9,45.7,29.81,South,182,0.0,-999.0,5,-99.99,,,0.00,0.0,cwc,2013-06-01 19:15:00,
2013-06-01 13:20:00,80.1,45.9,29.81,SW,217,0.0,-999.0,5,-99.99,,,0.00,0.0,cwc,2013-06-01 19:20:00,
2013-06-01 13:25:00,79.9,45.7,29.81,South,182,4.0,-999.0,5,-99.99,,,0.00,0.0,cwc,2013-06-01 19:25:00,
2013-06-01 13:30:00,79.4,45.2,29.81,SSE,160,0.0,-999.0,5,-99.99,,,0.00,0.0,cwc,2013-06-01 19:30:00,
2013-06-01 13:35:00,78.8,44.2,29.80,SSW,192,1.0,-999.0,4,-99.99,,,0.00,0.0,cwc,2013-06-01 19:35:00,
2013-06-01 13:40:00,80.7,46.5,29.80,West,272,0.0,-999.0,5,-99.99,,,0.00,0.0,cwc,2013-06-01 19:40:00,
2013-06-01 13:45:00,80.9,46.7,29.80,North,359,0.0,-999.0,5,-99.99,,,0.00,0.0,cwc,2013-06-01 19:45:00,
2013-06-01 13:50:00,80.9,46.7,29.78,NNW,344,11.0,-999.0,5,-99.99,,,0.00,0.0,cwc,2013-06-01 19:50:00,
2013-06-01 13:55:00,80.9,46.7,29.78,NNW,343,2.0,-999.0,5,-99.99,,,0.00,0.0,cwc,2013-06-01 19:55:00,
2013-06-01 14:00:00,80.7,46.1,29.78,NNW,328,0.0,-999.0,4,-99.99,,,0.00,0.0,cwc,2013-06-01 20:00:00,
2013-06-01 14:05:00,78.5,44.3,29.78,SSE,161,11.0,-999.0,5,-99.99,,,0.00,0.0,cwc,2013-06-01 20:05:00,
2013-06-01 14:10:00,80.5,45.9,29.78,WSW,254,0.0,-999.0,4,-99.99,,,0.00,0.0,cwc,2013-06-01 20:10:00,
2013-06-01 14:15:00,79.8,45.2,29.78,North,352,2.0,-999.0,4,-99.99,,,0.00,0.0,cwc,2013-06-01 20:15:00,
2013-06-01 14:20:00,79.9,45.7,29.79,ENE,62,0.0,-999.0,5,-99.99,,,0.00,0.0,cwc,2013-06-01 20:20:00,
2013-06-01 14:25:00,79.0,44.8,29.79,East,82,4.0,-999.0,5,-99.99,,,0.00,0.0,cwc,2013-06-01 20:25:00,
2013-06-01 14:30:00,80.3,46.1,29.79,NE,55,6.0,-999.0,5,-99.99,,,0.00,0.0,cwc,2013-06-01 20:30:00,
2013-06-01 14:35:00,80.7,46.5,29.77,ENE,64,0.0,-999.0,5,-99.99,,,0.00,0.0,cwc,2013-06-01 20:35:00,
2013-06-01 14:40:00,82.2,48.0,29.77,South,178,0.0,-999.0,5,-99.99,,,0.00,0.0,cwc,2013-06-01 20:40:00,
2013-06-01 14:45:00,83.0,48.8,29.77,East,97,0.0,-999.0,5,-99.99,,,0.00,0.0,cwc,2013-06-01 20:45:00,
2013-06-01 14:50:00,82.2,47.6,29.75,East,79,6.0,-999.0,4,-99.99,,,0.00,0.0,cwc,2013-06-01 20:50:00,
2013-06-01 14:55:00,82.6,48.4,29.75,East,95,1.0,-999.0,5,-99.99,,,0.00,0.0,cwc,2013-06-01 20:55:00,
2013-06-01 15:00:00,84.0,49.8,29.75,West,280,0.0,-999.0,5,-99.99,,,0.00,0.0,cwc,2013-06-01 21:00:00,
2013-06-01 15:05:00,82.2,48.0,29.74,North,0,0.0,-999.0,5,-99.99,,,0.00,0.0,cwc,2013-06-01 21:05:00,
2013-06-01 15:10:00,83.0,48.8,29.74,WSW,241,1.0,-999.0,5,-99.99,,,0.00,0.0,cwc,2013-06-01 21:10:00,
2013-06-01 15:15:00,82.4,48.6,29.74,SSW,208,0.0,-999.0,6,-99.99,,,0.00,0.0,cwc,2013-06-01 21:15:00,
2013-06-01 15:20:00,82.2,48.4,29.76,East,79,0.0,-999.0,6,-99.99,,,0.00,0.0,cwc,2013-06-01 21:20:00,
2013-06-01 15:25:00,82.6,48.4,29.76,East,80,4.0,-999.0,5,-99.99,,,0.00,0.0,cwc,2013-06-01 21:25:00,
2013-06-01 15:30:00,82.4,48.6,29.76,NE,41,4.0,-999.0,6,-99.99,,,0.00,0.0,cwc,2013-06-01 21:30:00,
2013-06-01 15:35:00,83.4,49.2,29.75,East,92,0.0,-999.0,5,-99.99,,,0.00,0.0,cwc,2013-06-01 21:35:00,
2013-06-01 15:40:00,83.0,49.2,29.75,East,99,2.0,-999.0,6,-99.99,,,0.00,0.0,cwc,2013-06-01 21:40:00,
2013-06-01 15:45:00,83.2,49.0,29.75,East,79,4.0,-999.0,5,-99.99,,,0.00,0.0,cwc,2013-06-01 21:45:00,
2013-06-01 15:50:00,83.6,49.4,29.75,SE,141,0.0,-999.0,5,-99.99,,,0.00,0.0,cwc,2013-06-01 21:50:00,
2013-06-01 16:00:00,84.7,50.9,29.75,SE,127,0.0,-999.0,6,-99.99,,,0.00,0.0,cwc,2013-06-01 22:00:00,
2013-06-01 16:05:00,84.5,50.3,29.73,SE,143,4.0,-999.0,5,-99.99,,,0.00,0.0,cwc,2013-06-01 22:05:00,
2013-06-01 16:10:00,84.3,50.1,29.73,SSE,154,8.0,-999.0,5,-99.99,,,0.00,0.0,cwc,2013-06-01 22:10:00,
2013-06-01 16:15:00,84.9,50.7,29.73,SW,219,9.0,-999.0,5,-99.99,,,0.00,0.0,cwc,2013-06-01 22:15:00,
2013-06-01 16:20:00,85.1,50.9,29.75,NNW,329,0.0,-999.0,5,-99.99,,,0.00,0.0,cwc,2013-06-01 22:20:00,
2013-06-01 16:25:00,84.9,50.7,29.75,SSW,198,7.0,-999.0,5,-99.99,,,0.00,0.0,cwc,2013-06-01 22:25:00,
2013-06-01 16:30:00,84.3,50.1,29.75,South,182,7.0,-999.0,5,-99.99,,,0.00,0.0,cwc,2013-06-01 22:30:00,
2013-06-01 16:35:00,84.1,49.5,29.73,SSW,198,6.0,-999.0,4,-99.99,,,0.00,0.0,cwc,2013-06-01 22:35:00,
2013-06-01 16:40:00,84.3,50.1,29.73,North,0,0.0,-999.0,5,-99.99,,,0.00,0.0,cwc,2013-06-01 22:40:00,
2013-06-01 16:45:00,86.1,51.9,29.73,NNW,330,0.0,-999.0,5,-99.99,,,0.00,0.0,cwc,2013-06-01 22:45:00,
2013-06-01 16:50:00,86.3,52.1,29.72,NW,320,1.0,-999.0,5,-99.99,,,0.00,0.0,cwc,2013-06-01 22:50:00,
2013-06-01 17:00:00,84.5,50.3,29.72,SE,128,9.0,-999.0,5,-99.99,,,0.00,0.0,cwc,2013-06-01 23:00:00,
2013-06-01 17:05:00,85.3,51.1,29.73,SW,222,0.0,-999.0,5,-99.99,,,0.00,0.0,cwc,2013-06-01 23:05:00,
2013-06-01 17:10:00,85.9,51.3,29.73,WSW,239,1.0,-999.0,4,-99.99,,,0.00,0.0,cwc,2013-06-01 23:10:00,
2013-06-01 17:15:00,84.5,50.3,29.73,South,182,0.0,-999.0,5,-99.99,,,0.00,0.0,cwc,2013-06-01 23:15:00,
2013-06-01 17:20:00,84.5,50.3,29.74,SSE,168,6.0,-999.0,5,-99.99,,,0.00,0.0,cwc,2013-06-01 23:20:00,
2013-06-01 17:25:00,85.1,50.9,29.74,SE,126,0.0,-999.0,5,-99.99,,,0.00,0.0,cwc,2013-06-01 23:25:00,
2013-06-01 17:30:00,85.1,50.9,29.74,SE,130,0.0,-999.0,5,-99.99,,,0.00,0.0,cwc,2013-06-01 23:30:00,
2013-06-01 17:35:00,84.5,50.3,29.74,South,182,13.0,-999.0,5,-99.99,,,0.00,0.0,cwc,2013-06-01 23:35:00,
2013-06-01 17:40:00,84.1,49.9,29.74,SSW,196,9.0,-999.0,5,-99.99,,,0.00,0.0,cwc,2013-06-01 23:40:00,
2013-06-01 17:45:00,83.4,49.2,29.74,South,172,2.0,-999.0,5,-99.99,,,0.00,0.0,cwc,2013-06-01 23:45:00,
2013-06-01 17:50:00,83.6,49.4,29.75,SSE,147,7.0,-999.0,5,-99.99,,,0.00,0.0,cwc,2013-06-01 23:50:00,
2013-06-01 17:55:00,83.4,49.2,29.75,South,171,10.0,-999.0,5,-99.99,,,0.00,0.0,cwc,2013-06-01 23:55:00,
2013-06-01 18:00:00,83.4,49.2,29.75,SSE,165,9.0,-999.0,5,-99.99,,,0.00,0.0,cwc,2013-06-02 00:00:00,
2013-06-01 18:05:00,83.2,49.0,29.75,South,184,4.0,-999.0,5,-99.99,,,0.00,0.0,cwc,2013-06-02 00:05:00,
2013-06-01 18:10:00,83.4,49.2,29.75,SW,217,6.0,-999.0,5,-99.99,,,0.00,0.0,cwc,2013-06-02 00:10:00,
2013-06-01 18:15:00,83.8,49.6,29.75,SW,219,0.0,-999.0,5,-99.99,,,0.00,0.0,cwc,2013-06-02 00:15:00,
2013-06-01 18:20:00,83.6,49.4,29.70,SW,220,9.0,-999.0,5,-99.99,,,0.00,0.0,cwc,2013-06-02 00:20:00,
2013-06-01 18:25:00,83.8,49.6,29.70,SSW,208,0.0,-999.0,5,-99.99,,,0.00,0.0,cwc,2013-06-02 00:25:00,
2013-06-01 18:30:00,83.0,48.8,29.70,South,181,8.0,-999.0,5,-99.99,,,0.00,0.0,cwc,2013-06-02 00:30:00,
2013-06-01 18:35:00,82.4,48.2,29.72,SW,215,10.0,-999.0,5,-99.99,,,0.00,0.0,cwc,2013-06-02 00:35:00,
2013-06-01 18:40:00,82.4,48.2,29.72,SSW,205,2.0,-999.0,5,-99.99,,,0.00,0.0,cwc,2013-06-02 00:40:00,
2013-06-01 18:45:00,82.0,47.8,29.72,SSW,205,6.0,-999.0,5,-99.99,,,0.00,0.0,cwc,2013-06-02 00:45:00,
2013-06-01 18:50:00,82.0,47.8,29.72,SW,230,1.0,-999.0,5,-99.99,,,0.00,0.0,cwc,2013-06-02 00:50:00,
2013-06-01 18:55:00,82.0,47.8,29.72,SSW,209,0.0,-999.0,5,-99.99,,,0.00,0.0,cwc,2013-06-02 00:55:00,
2013-06-01 19:00:00,81.6,47.8,29.72,SW,216,14.0,-999.0,6,-99.99,,,0.00,0.0,cwc,2013-06-02 01:00:00,
2013-06-01 19:05:00,81.1,47.3,29.72,SSW,193,10.0,-999.0,6,-99.99,,,0.00,0.0,cwc,2013-06-02 01:05:00,
2013-06-01 19:10:00,80.9,47.1,29.72,South,186,11.0,-999.0,6,-99.99,,,0.00,0.0,cwc,2013-06-02 01:10:00,
2013-06-01 19:15:00,80.7,46.9,29.72,South,176,11.0,-999.0,6,-99.99,,,0.00,0.0,cwc,2013-06-02 01:15:00,
2013-06-01 19:20:00,80.5,46.3,29.66,South,172,14.0,-999.0,5,-99.99,,,0.00,0.0,cwc,2013-06-02 01:20:00,
2013-06-01 19:25:00,80.3,46.1,29.66,South,191,10.0,-999.0,5,-99.99,,,0.00,0.0,cwc,2013-06-02 01:25:00,
2013-06-01 19:30:00,80.1,45.9,29.66,SSE,162,10.0,-999.0,5,-99.99,,,0.00,0.0,cwc,2013-06-02 01:30:00,
2013-06-01 19:35:00,79.8,46.0,29.68,South,191,7.0,-999.0,6,-99.99,,,0.00,0.0,cwc,2013-06-02 01:35:00,
2013-06-01 19:40:00,79.6,45.4,29.68,SW,215,7.0,-999.0,5,-99.99,,,0.00,0.0,cwc,2013-06-02 01:40:00,
2013-06-01 19:45:00,79.2,45.0,29.68,SSW,198,6.0,-999.0,5,-99.99,,,0.00,0.0,cwc,2013-06-02 01:45:00,
2013-06-01 19:50:00,79.2,45.0,29.69,South,191,11.0,-999.0,5,-99.99,,,0.00,0.0,cwc,2013-06-02 01:50:00,
2013-06-01 19:55:00,78.8,44.6,29.69,SSW,198,9.0,-999.0,5,-99.99,,,0.00,0.0,cwc,2013-06-02 01:55:00,
2013-06-01 20:00:00,78.5,44.7,29.69,SSE,164,8.0,-999.0,6,-99.99,,,0.00,0.0,cwc,2013-06-02 02:00:00,
2013-06-01 20:05:00,78.1,43.9,29.69,South,169,11.0,-999.0,5,-99.99,,,0.00,0.0,cwc,2013-06-02 02:05:00,
2013-06-01 20:10:00,77.9,43.7,29.69,South,189,7.0,-999.0,5,-99.99,,,0.00,0.0,cwc,2013-06-02 02:10:00,
2013-06-01 20:15:00,77.4,43.2,29.69,SW,224,6.0,-999.0,5,-99.99,,,0.00,0.0,cwc,2013-06-02 02:15:00,
2013-06-01 20:20:00,77.4,43.2,29.66,South,186,2.0,-999.0,5,-99.99,,,0.00,0.0,cwc,2013-06-02 02:20:00,
2013-06-01 20:25:00,77.0,42.8,29.66,SSW,206,1.0,-999.0,5,-99.99,,,0.00,0.0,cwc,2013-06-02 02:25:00,
2013-06-01 20:30:00,76.7,42.5,29.66,South,189,1.0,-999.0,5,-99.99,,,0.00,0.0,cwc,2013-06-02 02:30:00,
2013-06-01 20:35:00,76.3,42.5,29.66,South,189,0.0,-999.0,6,-99.99,,,0.00,0.0,cwc,2013-06-02 02:35:00,
2013-06-01 20:40:00,75.6,41.8,29.66,South,189,0.0,-999.0,6,-99.99,,,0.00,0.0,cwc,2013-06-02 02:40:00,
2013-06-01 20:45:00,75.1,41.3,29.66,South,189,4.0,-999.0,6,-99.99,,,0.00,0.0,cwc,2013-06-02 02:45:00,
2013-06-01 20:50:00,74.6,40.8,29.68,SSE,161,4.0,-999.0,6,-99.99,,,0.00,0.0,cwc,2013-06-02 02:50:00,
2013-06-01 21:00:00,72.8,39.7,29.68,ESE,102,2.0,-999.0,8,-99.99,,,0.00,0.0,cwc,2013-06-02 03:00:00,
2013-06-01 21:05:00,71.3,37.8,29.72,SE,141,1.0,-999.0,7,-99.99,,,0.00,0.0,cwc,2013-06-02 03:05:00,
2013-06-01 21:10:00,71.3,38.9,29.72,SE,143,0.0,-999.0,10,-99.99,,,0.00,0.0,cwc,2013-06-02 03:10:00,
2013-06-01 21:15:00,71.1,38.7,29.72,SE,143,0.0,-999.0,10,-99.99,,,0.00,0.0,cwc,2013-06-02 03:15:00,
2013-06-01 21:20:00,70.9,38.9,29.69,SE,128,7.0,-999.0,11,-99.99,,,0.00,0.0,cwc,2013-06-02 03:20:00,
2013-06-01 21:25:00,70.8,39.5,29.69,SE,130,2.0,-999.0,13,-99.99,,,0.00,0.0,cwc,2013-06-02 03:25:00,
2013-06-01 21:35:00,69.8,38.5,29.70,SE,130,0.0,-999.0,13,-99.99,,,0.00,0.0,cwc,2013-06-02 03:35:00,
2013-06-01 21:40:00,69.6,38.3,29.70,SE,130,0.0,-999.0,13,-99.99,,,0.00,0.0,cwc,2013-06-02 03:40:00,
2013-06-01 21:45:00,69.4,38.4,29.70,SE,130,0.0,-999.0,14,-99.99,,,0.00,0.0,cwc,2013-06-02 03:45:00,
2013-06-01 21:50:00,69.3,38.3,29.72,SE,130,0.0,-999.0,14,-99.99,,,0.00,0.0,cwc,2013-06-02 03:50:00,
2013-06-01 21:55:00,68.8,38.6,29.72,SE,130,0.0,-999.0,16,-99.99,,,0.00,0.0,cwc,2013-06-02 03:55:00,
2013-06-01 22:00:00,67.9,37.7,29.72,SE,130,0.0,-999.0,16,-99.99,,,0.00,0.0,cwc,2013-06-02 04:00:00,
2013-06-01 22:05:00,67.1,37.6,29.73,SE,130,0.0,-999.0,18,-99.99,,,0.00,0.0,cwc,2013-06-02 04:05:00,
2013-06-01 22:10:00,67.1,37.9,29.73,SE,130,0.0,-999.0,19,-99.99,,,0.00,0.0,cwc,2013-06-02 04:10:00,
2013-06-01 22:15:00,66.8,38.0,29.73,SE,130,0.0,-999.0,20,-99.99,,,0.00,0.0,cwc,2013-06-02 04:15:00,
2013-06-01 22:20:00,66.1,37.7,29.73,SE,130,0.0,-999.0,21,-99.99,,,0.00,0.0,cwc,2013-06-02 04:20:00,
2013-06-01 22:25:00,65.5,37.1,29.73,SE,130,0.0,-999.0,21,-99.99,,,0.00,0.0,cwc,2013-06-02 04:25:00,
2013-06-01 22:30:00,64.8,36.4,29.73,SE,130,0.0,-999.0,21,-99.99,,,0.00,0.0,cwc,2013-06-02 04:30:00,
2013-06-01 22:35:00,63.9,36.2,29.75,SE,130,0.0,-999.0,23,-99.99,,,0.00,0.0,cwc,2013-06-02 04:35:00,
2013-06-01 22:40:00,63.2,35.5,29.75,SE,130,0.0,-999.0,23,-99.99,,,0.00,0.0,cwc,2013-06-02 04:40:00,
2013-06-01 22:45:00,62.9,34.8,29.75,SE,130,0.0,-999.0,22,-99.99,,,0.00,0.0,cwc,2013-06-02 04:45:00,
2013-06-01 22:50:00,62.1,34.4,29.77,SE,130,0.0,-999.0,23,-99.99,,,0.00,0.0,cwc,2013-06-02 04:50:00,
2013-06-01 22:55:00,61.6,35.0,29.77,SE,130,0.0,-999.0,26,-99.99,,,0.00,0.0,cwc,2013-06-02 04:55:00,
2013-06-01 23:00:00,61.5,34.1,29.77,SE,130,0.0,-999.0,24,-99.99,,,0.00,0.0,cwc,2013-06-02 05:00:00,
2013-06-01 23:05:00,61.8,34.4,29.78,SE,130,0.0,-999.0,24,-99.99,,,0.00,0.0,cwc,2013-06-02 05:05:00,
2013-06-01 23:10:00,61.8,34.4,29.78,SE,130,0.0,-999.0,24,-99.99,,,0.00,0.0,cwc,2013-06-02 05:10:00,
2013-06-01 23:15:00,61.6,34.2,29.78,SE,130,0.0,-999.0,24,-99.99,,,0.00,0.0,cwc,2013-06-02 05:15:00,
2013-06-01 23:20:00,61.5,33.8,29.75,SE,130,0.0,-999.0,23,-99.99,,,0.00,0.0,cwc,2013-06-02 05:20:00,
2013-06-01 23:25:00,61.2,34.2,29.75,SE,130,0.0,-999.0,25,-99.99,,,0.00,0.0,cwc,2013-06-02 05:25:00,
2013-06-01 23:30:00,60.7,34.1,29.75,SE,130,0.0,-999.0,26,-99.99,,,0.00,0.0,cwc,2013-06-02 05:30:00,
2013-06-01 23:35:00,60.1,33.5,29.77,SE,130,0.0,-999.0,26,-99.99,,,0.00,0.0,cwc,2013-06-02 05:35:00,
2013-06-01 23:40:00,59.8,32.8,29.77,SE,130,0.0,-999.0,25,-99.99,,,0.00,0.0,cwc,2013-06-02 05:40:00,
2013-06-01 23:45:00,59.5,32.9,29.77,SE,127,6.0,-999.0,26,-99.99,,,0.00,0.0,cwc,2013-06-02 05:45:00,
2013-06-01 23:50:00,59.3,33.0,29.77,SE,126,0.0,-999.0,27,-99.99,,,0.00,0.0,cwc,2013-06-02 05:50:00,
2013-06-01 23:55:00,58.9,32.6,29.77,SE,126,0.0,-999.0,27,-99.99,,,0.00,0.0,cwc,2013-06-02 05:55:00,